Kenora Airport
CYQK : now visible

Airfield :











YOU CAN JOIN US ON...

 
LOGIN :

Register | Disclaimer

   EN    FR    IT 

 









Legend :    VFR   Marginal VFR   IFR   Intensive IFR   Very Intensive IFR
Visi :
Ceiling :
>= 8 km
>= 3000ft
5 to 8 km
1000 to 3000 ft
1500m to 5 km
500 to 1000 ft
800 to 1500m
200 to 500 ft
< 800m
< 200 ft
Symbols :   Thunderstorms  Fog  Heavy snow  Heavy precipitations  Wind > 20 kt







- Airport Elevation : 1332 ft
- IATA code : YQK


CYQK - Kenora

CURRENT METAR :
  • 260529Z 17010G17KT 4SM SHRA BR FEW006 OVC014 16/15 A2980 RMK SF2SC6 CVCTV CLD EMBD SLP093 DENSITY ALT 2000FT

EXPIRED METARs :
  • 260519Z 19013KT 2SM +SHRA BR FEW006 OVC014 16/15 A2980 RMK SF2SC6 CVCTV CLD EMBD /R10/ SLP094 DENSITY ALT 2000FT
  • 260512Z 18013G18KT 4SM +SHRA BR FEW008 OVC015 17/15 A2980 RMK SF2SC6 CVCTV CLD EMBD SLP095 DENSITY ALT 2100FT
  • 260500Z 17011G19KT 12SM -SHRA FEW008 OVC017 17/15 A2980 RMK SF1SC7 CVCTV CLD EMBD SLP093 DENSITY ALT 2100FT
  • 260451Z 18014G19KT 15SM -SHRA FEW008 OVC017 17/14 A2980 RMK SF1SC7 CVCTV CLD EMBD SLP095 DENSITY ALT 2100FT
  • 260400Z 17010G17KT 20SM FEW008 OVC022 17/15 A2980 RMK SF2SC6 SLP094 DENSITY ALT 2100FT
  • 260307Z 17011G16KT 12SM -SHRA FEW008 OVC022 17/15 A2981 RMK SF2SC6 CVCTV CLD EMBD SLP097 DENSITY ALT 2000FT
  • 260300Z 17009KT 6SM SHRA BR FEW008 OVC024 17/15 A2981 RMK SF2SC6 CVCTV CLD EMBD SLP098 DENSITY ALT 2000FT
  • 260232Z 19013G18KT 15SM -SHRA FEW008 OVC024 17/15 A2982 RMK SF2SC6 CVCTV CLD EMBD SLP101 DENSITY ALT 2100FT

TAF AMD TAF CYQK
Valid from the 26 at 05:00 until the 26 at 14:00 UTC


260517Z 2605/2614 18012KT P6SM -SHRA BKN015 OVC030
TEMPO 2605/2612 5SM -SHRA BR BKN007 OVC015
FM261200 17010KT 6SM -RA BR SCT007 OVC012
TEMPO 2612/2614 3SM -DZ BR OVC007 RMK NXT FCST BY 260800Z
No reported NOTAMs for that airfield.



MET'MAP, your aeronautical weather chart ! - Copyright ORBIFLY December 2007 - Disclaimer

ORBIFLY MET'MAP TEAM :

Programming & Development : Alexandra Zaïnal
Concept & Development : Baudouin d'Aumeries
Co-Development & Prog : Marc-Olivier Méhu
Technical & hardware support : Manuel Goepfert

Contact : metmap@orbifly.com




SOURCES & CREDITS :

   NOAA       Earth
Advisory